Main page
METAR-TAF:

METAR-TAF

Airports :

Trieste, Italy

latitude: 45-39N, longitude: 013-45E, elevation: 8 m

Current weather observation

The report was made 1 hour and 9 minutes ago, at 07:55 UTC
Wind 25 kt from the Northeast with gusts up to 47 kt
Temperature 7°C
Humidity 49%
Pressure 1021 hPa
Visibility 10 km or more
Few clouds at a height of 4000 ft

METAR: LIVT 180755Z 04025G47KT 9999 FEW040 07/M03 Q1021 RMK FEW QUK 3 QUL 1 NE VIS MAR 20 KM VIS MIN 9999

Time: 10:04 (09:04 UTC)


TAF: missing

Weather observations and forecasts of more than 4000 airports (METAR and TAF reports).

The available stations are represented by yellow and red dots on the map.

Hover mouse over dot to see the name of the station.

Then click to see weather observations and forecasts.

To change the map : click on the green buttons with a black cross to zoom in, on the green button with a dash to zoom out, or on the green arrows for adjacent maps.


METAR-TAF: